Прогноз погоды TAF Талаги

СКИДКИ НА СМАРТФОНЫ!

Прогноз погоды TAF: 
TAF ULAA 240500Z 2406/2506 06003MPS 9999 BKN020 TEMPO 2406/2415 07003G08MPS 6000 BKN016 TEMPO 2415/2424 05003MPS 3000 -SHRA BR FEW006 BKN011CB
Аэропорт подробнее: 
Регион: 

Скидки на навигаторы!